SVMI/CCS METAR and TAF weather

Enter ICAO airport designator
Station Type Date Time Source
SVMI METAR 2019/04/22 16:59 UTC NOAA

SVMI 221659Z 14003 KT 9999 BKN013 28/25 1015


Station Type Date Time Source
SVMI Decoded METAR 2019/04/22 16:59 UTC NOAA

Caracas / Maiquetia Aerop. Intl. Simon Bolivar, Venezuela (SVMI) 10-36N 066-59W 48M
Apr 22, 2019 - 12:59 PM EDT / 2019.04.22 1659 UTC
Visibility: greater than 7 mile(s):0
Sky conditions: mostly cloudy
Temperature: 82 F (28 C)
Dew Point: 77 F (25 C)
Relative Humidity: 83%
ob: SVMI 221659Z 14003 KT 9999 BKN013 28/25 1015
cycle: 17

Station Type Date Time Source
SVMI TAF 2019/04/22 18:03 UTC NOAA

TAF SVMI 220400Z 2418/2518 TAF SVMI 220400Z 2218/2318 09006KT 9999 SCT016 TX33/19Z TN24/09Z
TEMPO 2218/2222 05008KT 9999 BKN016

Example: see airport list